sensor_id;sensor_type;location;lat;lon;timestamp;P1;durP1;ratioP1;P2;durP2;ratioP2
31734;SDS011;18313;48.518;9.124;2023-07-29T00:00:11;2.80;;;1.10;;
31734;SDS011;18313;48.518;9.124;2023-07-29T00:02:40;2.20;;;1.05;;
31734;SDS011;18313;48.518;9.124;2023-07-29T00:05:07;2.15;;;1.00;;
31734;SDS011;18313;48.518;9.124;2023-07-29T00:07:35;2.10;;;0.95;;
31734;SDS011;18313;48.518;9.124;2023-07-29T00:10:02;3.03;;;1.20;;
31734;SDS011;18313;48.518;9.124;2023-07-29T00:12:30;5.10;;;1.10;;
31734;SDS011;18313;48.518;9.124;2023-07-29T00:14:57;1.92;;;1.00;;
31734;SDS011;18313;48.518;9.124;2023-07-29T00:17:24;2.53;;;1.10;;
31734;SDS011;18313;48.518;9.124;2023-07-29T00:19:51;4.80;;;1.00;;
31734;SDS011;18313;48.518;9.124;2023-07-29T00:22:19;5.20;;;1.17;;
31734;SDS011;18313;48.518;9.124;2023-07-29T00:24:50;2.22;;;1.15;;
31734;SDS011;18313;48.518;9.124;2023-07-29T00:27:20;5.35;;;1.33;;
31734;SDS011;18313;48.518;9.124;2023-07-29T00:29:47;4.05;;;1.40;;
31734;SDS011;18313;48.518;9.124;2023-07-29T00:32:15;3.00;;;1.55;;
31734;SDS011;18313;48.518;9.124;2023-07-29T00:34:42;3.55;;;1.40;;
31734;SDS011;18313;48.518;9.124;2023-07-29T00:37:09;2.97;;;1.10;;
31734;SDS011;18313;48.518;9.124;2023-07-29T00:39:37;2.45;;;1.35;;
31734;SDS011;18313;48.518;9.124;2023-07-29T00:42:04;2.88;;;1.30;;
31734;SDS011;18313;48.518;9.124;2023-07-29T00:44:32;2.35;;;1.20;;
31734;SDS011;18313;48.518;9.124;2023-07-29T00:46:59;2.72;;;1.10;;
31734;SDS011;18313;48.518;9.124;2023-07-29T00:49:29;3.22;;;1.20;;
31734;SDS011;18313;48.518;9.124;2023-07-29T00:51:56;1.98;;;1.15;;
31734;SDS011;18313;48.518;9.124;2023-07-29T00:54:23;4.65;;;1.58;;
31734;SDS011;18313;48.518;9.124;2023-07-29T00:56:50;4.55;;;1.58;;
31734;SDS011;18313;48.518;9.124;2023-07-29T00:59:17;4.00;;;1.67;;
31734;SDS011;18313;48.518;9.124;2023-07-29T01:01:45;3.83;;;1.55;;
31734;SDS011;18313;48.518;9.124;2023-07-29T01:04:12;2.58;;;1.25;;
31734;SDS011;18313;48.518;9.124;2023-07-29T01:09:23;2.42;;;1.50;;
31734;SDS011;18313;48.518;9.124;2023-07-29T01:12:01;3.92;;;1.50;;
31734;SDS011;18313;48.518;9.124;2023-07-29T01:14:39;2.58;;;1.20;;
31734;SDS011;18313;48.518;9.124;2023-07-29T01:17:22;2.55;;;1.30;;
31734;SDS011;18313;48.518;9.124;2023-07-29T01:22:30;1.77;;;1.10;;
31734;SDS011;18313;48.518;9.124;2023-07-29T01:24:58;3.55;;;1.27;;
31734;SDS011;18313;48.518;9.124;2023-07-29T01:27:26;2.45;;;1.20;;
31734;SDS011;18313;48.518;9.124;2023-07-29T01:29:53;2.55;;;1.27;;
31734;SDS011;18313;48.518;9.124;2023-07-29T01:32:25;3.25;;;1.58;;
31734;SDS011;18313;48.518;9.124;2023-07-29T01:35:15;3.53;;;1.50;;
31734;SDS011;18313;48.518;9.124;2023-07-29T01:37:53;3.78;;;1.70;;
31734;SDS011;18313;48.518;9.124;2023-07-29T01:40:26;2.72;;;1.58;;
31734;SDS011;18313;48.518;9.124;2023-07-29T01:42:54;3.53;;;1.63;;
31734;SDS011;18313;48.518;9.124;2023-07-29T01:45:23;3.15;;;1.90;;
31734;SDS011;18313;48.518;9.124;2023-07-29T01:47:52;3.83;;;1.60;;
31734;SDS011;18313;48.518;9.124;2023-07-29T01:50:19;2.55;;;1.80;;
31734;SDS011;18313;48.518;9.124;2023-07-29T01:52:47;2.58;;;1.90;;
31734;SDS011;18313;48.518;9.124;2023-07-29T01:55:14;3.35;;;1.67;;
31734;SDS011;18313;48.518;9.124;2023-07-29T01:57:41;2.88;;;1.70;;
31734;SDS011;18313;48.518;9.124;2023-07-29T02:00:11;3.00;;;1.58;;
31734;SDS011;18313;48.518;9.124;2023-07-29T02:02:39;2.47;;;1.52;;
31734;SDS011;18313;48.518;9.124;2023-07-29T02:05:06;3.05;;;1.77;;
31734;SDS011;18313;48.518;9.124;2023-07-29T02:07:34;2.03;;;1.52;;
31734;SDS011;18313;48.518;9.124;2023-07-29T02:10:01;2.67;;;1.70;;
31734;SDS011;18313;48.518;9.124;2023-07-29T02:12:29;3.33;;;1.80;;
31734;SDS011;18313;48.518;9.124;2023-07-29T02:14:56;3.95;;;1.70;;
31734;SDS011;18313;48.518;9.124;2023-07-29T02:17:23;4.45;;;1.85;;
31734;SDS011;18313;48.518;9.124;2023-07-29T02:19:50;6.10;;;1.80;;
31734;SDS011;18313;48.518;9.124;2023-07-29T02:22:17;3.83;;;2.30;;
31734;SDS011;18313;48.518;9.124;2023-07-29T02:24:44;3.50;;;2.13;;
31734;SDS011;18313;48.518;9.124;2023-07-29T02:27:11;3.70;;;2.45;;
31734;SDS011;18313;48.518;9.124;2023-07-29T02:29:39;2.72;;;2.10;;
31734;SDS011;18313;48.518;9.124;2023-07-29T02:32:06;10.20;;;2.10;;
31734;SDS011;18313;48.518;9.124;2023-07-29T02:34:33;5.05;;;1.75;;
31734;SDS011;18313;48.518;9.124;2023-07-29T02:37:01;2.50;;;1.40;;
31734;SDS011;18313;48.518;9.124;2023-07-29T02:39:28;3.20;;;1.50;;
31734;SDS011;18313;48.518;9.124;2023-07-29T02:41:55;2.42;;;1.50;;
31734;SDS011;18313;48.518;9.124;2023-07-29T02:44:24;3.05;;;1.35;;
31734;SDS011;18313;48.518;9.124;2023-07-29T02:46:51;1.98;;;1.55;;
31734;SDS011;18313;48.518;9.124;2023-07-29T02:49:21;2.85;;;1.60;;
31734;SDS011;18313;48.518;9.124;2023-07-29T02:51:50;2.45;;;1.50;;
31734;SDS011;18313;48.518;9.124;2023-07-29T02:54:17;3.10;;;1.70;;
31734;SDS011;18313;48.518;9.124;2023-07-29T02:56:44;2.55;;;1.65;;
31734;SDS011;18313;48.518;9.124;2023-07-29T02:59:11;2.20;;;1.52;;
31734;SDS011;18313;48.518;9.124;2023-07-29T03:01:38;2.50;;;1.50;;
31734;SDS011;18313;48.518;9.124;2023-07-29T03:04:05;2.83;;;1.60;;
31734;SDS011;18313;48.518;9.124;2023-07-29T03:06:33;2.30;;;1.50;;
31734;SDS011;18313;48.518;9.124;2023-07-29T03:09:01;1.73;;;1.23;;
31734;SDS011;18313;48.518;9.124;2023-07-29T03:11:28;1.55;;;1.05;;
31734;SDS011;18313;48.518;9.124;2023-07-29T03:13:55;6.80;;;1.58;;
31734;SDS011;18313;48.518;9.124;2023-07-29T03:16:23;2.20;;;1.42;;
31734;SDS011;18313;48.518;9.124;2023-07-29T03:18:50;3.00;;;1.35;;
31734;SDS011;18313;48.518;9.124;2023-07-29T03:21:18;1.90;;;1.40;;
31734;SDS011;18313;48.518;9.124;2023-07-29T03:23:45;2.45;;;1.23;;
31734;SDS011;18313;48.518;9.124;2023-07-29T03:26:12;2.38;;;1.63;;
31734;SDS011;18313;48.518;9.124;2023-07-29T03:28:40;1.88;;;1.27;;
31734;SDS011;18313;48.518;9.124;2023-07-29T03:31:09;1.90;;;1.20;;
31734;SDS011;18313;48.518;9.124;2023-07-29T03:33:36;1.70;;;1.17;;
31734;SDS011;18313;48.518;9.124;2023-07-29T03:36:04;2.40;;;1.20;;
31734;SDS011;18313;48.518;9.124;2023-07-29T03:38:31;2.17;;;1.13;;
31734;SDS011;18313;48.518;9.124;2023-07-29T03:41:02;2.38;;;1.20;;
31734;SDS011;18313;48.518;9.124;2023-07-29T03:43:29;1.90;;;0.98;;
31734;SDS011;18313;48.518;9.124;2023-07-29T03:45:57;2.88;;;1.08;;
31734;SDS011;18313;48.518;9.124;2023-07-29T03:48:24;1.20;;;0.95;;
31734;SDS011;18313;48.518;9.124;2023-07-29T03:50:51;3.53;;;1.20;;
31734;SDS011;18313;48.518;9.124;2023-07-29T03:53:18;2.22;;;1.20;;
31734;SDS011;18313;48.518;9.124;2023-07-29T03:55:45;3.17;;;1.10;;
31734;SDS011;18313;48.518;9.124;2023-07-29T03:58:13;2.33;;;1.17;;
31734;SDS011;18313;48.518;9.124;2023-07-29T04:00:40;3.72;;;1.17;;
31734;SDS011;18313;48.518;9.124;2023-07-29T04:03:08;4.03;;;1.40;;
31734;SDS011;18313;48.518;9.124;2023-07-29T04:05:35;3.17;;;1.35;;
31734;SDS011;18313;48.518;9.124;2023-07-29T04:08:03;2.35;;;1.40;;
31734;SDS011;18313;48.518;9.124;2023-07-29T04:10:30;3.33;;;1.10;;
31734;SDS011;18313;48.518;9.124;2023-07-29T04:12:58;2.85;;;1.30;;
31734;SDS011;18313;48.518;9.124;2023-07-29T04:15:25;3.47;;;1.40;;
31734;SDS011;18313;48.518;9.124;2023-07-29T04:17:52;4.82;;;1.50;;
31734;SDS011;18313;48.518;9.124;2023-07-29T04:20:19;4.25;;;1.20;;
31734;SDS011;18313;48.518;9.124;2023-07-29T04:22:46;1.48;;;1.10;;
31734;SDS011;18313;48.518;9.124;2023-07-29T04:25:13;2.67;;;1.45;;
31734;SDS011;18313;48.518;9.124;2023-07-29T04:27:41;1.33;;;1.15;;
31734;SDS011;18313;48.518;9.124;2023-07-29T04:30:08;2.97;;;1.50;;
31734;SDS011;18313;48.518;9.124;2023-07-29T04:32:35;2.65;;;1.23;;
31734;SDS011;18313;48.518;9.124;2023-07-29T04:35:02;1.92;;;1.35;;
31734;SDS011;18313;48.518;9.124;2023-07-29T04:37:30;2.00;;;1.42;;
31734;SDS011;18313;48.518;9.124;2023-07-29T04:39:57;1.90;;;1.42;;
31734;SDS011;18313;48.518;9.124;2023-07-29T04:42:24;2.60;;;1.25;;
31734;SDS011;18313;48.518;9.124;2023-07-29T04:44:51;3.53;;;1.58;;
31734;SDS011;18313;48.518;9.124;2023-07-29T04:47:18;2.22;;;1.30;;
31734;SDS011;18313;48.518;9.124;2023-07-29T04:49:45;1.83;;;1.30;;
31734;SDS011;18313;48.518;9.124;2023-07-29T04:52:12;2.95;;;1.58;;
31734;SDS011;18313;48.518;9.124;2023-07-29T04:54:41;3.97;;;1.55;;
31734;SDS011;18313;48.518;9.124;2023-07-29T04:57:08;5.32;;;2.38;;
31734;SDS011;18313;48.518;9.124;2023-07-29T04:59:35;3.38;;;2.00;;
31734;SDS011;18313;48.518;9.124;2023-07-29T05:02:02;2.67;;;1.50;;
31734;SDS011;18313;48.518;9.124;2023-07-29T05:04:30;1.83;;;1.30;;
31734;SDS011;18313;48.518;9.124;2023-07-29T05:06:57;7.57;;;1.75;;
31734;SDS011;18313;48.518;9.124;2023-07-29T05:09:25;5.13;;;1.80;;
31734;SDS011;18313;48.518;9.124;2023-07-29T05:11:54;6.35;;;2.05;;
31734;SDS011;18313;48.518;9.124;2023-07-29T05:14:21;4.13;;;1.98;;
31734;SDS011;18313;48.518;9.124;2023-07-29T05:16:48;3.22;;;1.70;;
31734;SDS011;18313;48.518;9.124;2023-07-29T05:19:16;3.65;;;2.00;;
31734;SDS011;18313;48.518;9.124;2023-07-29T05:21:43;3.28;;;2.13;;
31734;SDS011;18313;48.518;9.124;2023-07-29T05:24:10;4.30;;;1.90;;
31734;SDS011;18313;48.518;9.124;2023-07-29T05:26:37;3.78;;;1.88;;
31734;SDS011;18313;48.518;9.124;2023-07-29T05:29:05;3.85;;;1.80;;
31734;SDS011;18313;48.518;9.124;2023-07-29T05:31:33;4.03;;;1.70;;
31734;SDS011;18313;48.518;9.124;2023-07-29T05:34:00;3.30;;;2.00;;
31734;SDS011;18313;48.518;9.124;2023-07-29T05:36:27;4.68;;;2.25;;
31734;SDS011;18313;48.518;9.124;2023-07-29T05:38:55;2.92;;;1.90;;
31734;SDS011;18313;48.518;9.124;2023-07-29T05:41:23;2.47;;;1.73;;
31734;SDS011;18313;48.518;9.124;2023-07-29T05:43:50;4.15;;;1.90;;
31734;SDS011;18313;48.518;9.124;2023-07-29T05:46:17;3.55;;;1.95;;
31734;SDS011;18313;48.518;9.124;2023-07-29T05:48:44;3.17;;;2.20;;
31734;SDS011;18313;48.518;9.124;2023-07-29T05:51:11;3.20;;;2.00;;
31734;SDS011;18313;48.518;9.124;2023-07-29T05:53:38;3.92;;;1.90;;
31734;SDS011;18313;48.518;9.124;2023-07-29T05:56:05;6.60;;;2.00;;
31734;SDS011;18313;48.518;9.124;2023-07-29T05:58:32;3.67;;;2.00;;
31734;SDS011;18313;48.518;9.124;2023-07-29T06:01:00;4.00;;;1.70;;
31734;SDS011;18313;48.518;9.124;2023-07-29T06:03:27;4.30;;;1.77;;
31734;SDS011;18313;48.518;9.124;2023-07-29T06:05:55;4.03;;;1.88;;
31734;SDS011;18313;48.518;9.124;2023-07-29T06:08:22;2.78;;;1.65;;
31734;SDS011;18313;48.518;9.124;2023-07-29T06:10:49;4.32;;;1.90;;
31734;SDS011;18313;48.518;9.124;2023-07-29T06:13:16;3.42;;;1.85;;
31734;SDS011;18313;48.518;9.124;2023-07-29T06:15:44;6.82;;;1.80;;
31734;SDS011;18313;48.518;9.124;2023-07-29T06:18:11;3.90;;;1.70;;
31734;SDS011;18313;48.518;9.124;2023-07-29T06:20:38;4.63;;;1.73;;
31734;SDS011;18313;48.518;9.124;2023-07-29T06:23:05;3.40;;;1.98;;
31734;SDS011;18313;48.518;9.124;2023-07-29T06:25:32;4.75;;;1.60;;
31734;SDS011;18313;48.518;9.124;2023-07-29T06:27:59;5.05;;;1.90;;
31734;SDS011;18313;48.518;9.124;2023-07-29T06:30:26;2.72;;;1.60;;
31734;SDS011;18313;48.518;9.124;2023-07-29T06:32:53;3.17;;;1.55;;
31734;SDS011;18313;48.518;9.124;2023-07-29T06:35:21;4.55;;;1.85;;
31734;SDS011;18313;48.518;9.124;2023-07-29T06:37:48;4.28;;;2.22;;
31734;SDS011;18313;48.518;9.124;2023-07-29T06:40:15;3.60;;;2.22;;
31734;SDS011;18313;48.518;9.124;2023-07-29T06:42:42;3.90;;;2.30;;
31734;SDS011;18313;48.518;9.124;2023-07-29T06:45:10;3.90;;;2.13;;
31734;SDS011;18313;48.518;9.124;2023-07-29T06:47:37;4.30;;;2.00;;
31734;SDS011;18313;48.518;9.124;2023-07-29T06:50:04;3.15;;;1.88;;
31734;SDS011;18313;48.518;9.124;2023-07-29T06:52:31;3.47;;;1.90;;
31734;SDS011;18313;48.518;9.124;2023-07-29T06:54:59;9.77;;;3.05;;
31734;SDS011;18313;48.518;9.124;2023-07-29T06:57:26;5.28;;;2.15;;
31734;SDS011;18313;48.518;9.124;2023-07-29T06:59:53;6.47;;;2.05;;
31734;SDS011;18313;48.518;9.124;2023-07-29T07:02:20;7.53;;;2.38;;
31734;SDS011;18313;48.518;9.124;2023-07-29T07:04:48;4.90;;;2.28;;
31734;SDS011;18313;48.518;9.124;2023-07-29T07:07:15;2.83;;;1.83;;
31734;SDS011;18313;48.518;9.124;2023-07-29T07:09:43;4.63;;;2.50;;
31734;SDS011;18313;48.518;9.124;2023-07-29T07:12:10;4.72;;;2.10;;
31734;SDS011;18313;48.518;9.124;2023-07-29T07:14:37;13.52;;;1.98;;
31734;SDS011;18313;48.518;9.124;2023-07-29T07:17:04;4.82;;;2.33;;
31734;SDS011;18313;48.518;9.124;2023-07-29T07:19:32;5.25;;;2.30;;
31734;SDS011;18313;48.518;9.124;2023-07-29T07:21:59;4.22;;;2.20;;
31734;SDS011;18313;48.518;9.124;2023-07-29T07:24:26;3.05;;;1.83;;
31734;SDS011;18313;48.518;9.124;2023-07-29T07:26:53;3.90;;;2.08;;
31734;SDS011;18313;48.518;9.124;2023-07-29T07:29:20;5.32;;;2.17;;
31734;SDS011;18313;48.518;9.124;2023-07-29T07:31:51;6.15;;;2.60;;
31734;SDS011;18313;48.518;9.124;2023-07-29T07:34:20;2.88;;;1.83;;
31734;SDS011;18313;48.518;9.124;2023-07-29T07:36:47;3.42;;;2.10;;
31734;SDS011;18313;48.518;9.124;2023-07-29T07:39:14;3.78;;;2.30;;
31734;SDS011;18313;48.518;9.124;2023-07-29T07:41:42;3.80;;;2.38;;
31734;SDS011;18313;48.518;9.124;2023-07-29T07:44:09;3.03;;;1.98;;
31734;SDS011;18313;48.518;9.124;2023-07-29T07:46:37;5.25;;;2.40;;
31734;SDS011;18313;48.518;9.124;2023-07-29T07:49:05;4.60;;;2.28;;
31734;SDS011;18313;48.518;9.124;2023-07-29T07:51:32;2.67;;;2.03;;
31734;SDS011;18313;48.518;9.124;2023-07-29T07:53:59;3.38;;;2.05;;
31734;SDS011;18313;48.518;9.124;2023-07-29T07:56:26;3.33;;;1.88;;
31734;SDS011;18313;48.518;9.124;2023-07-29T07:58:53;2.80;;;1.80;;
31734;SDS011;18313;48.518;9.124;2023-07-29T08:01:20;4.20;;;2.05;;
31734;SDS011;18313;48.518;9.124;2023-07-29T08:03:48;5.35;;;2.00;;
31734;SDS011;18313;48.518;9.124;2023-07-29T08:06:16;3.33;;;2.10;;
31734;SDS011;18313;48.518;9.124;2023-07-29T08:08:44;6.78;;;2.03;;
31734;SDS011;18313;48.518;9.124;2023-07-29T08:11:11;3.85;;;1.90;;
31734;SDS011;18313;48.518;9.124;2023-07-29T08:13:39;3.10;;;1.80;;
31734;SDS011;18313;48.518;9.124;2023-07-29T08:16:06;2.95;;;1.90;;
31734;SDS011;18313;48.518;9.124;2023-07-29T08:18:33;3.17;;;1.65;;
31734;SDS011;18313;48.518;9.124;2023-07-29T08:21:00;3.15;;;1.85;;
31734;SDS011;18313;48.518;9.124;2023-07-29T08:23:31;4.13;;;1.70;;
31734;SDS011;18313;48.518;9.124;2023-07-29T08:26:00;2.88;;;1.88;;
31734;SDS011;18313;48.518;9.124;2023-07-29T08:28:37;3.92;;;1.80;;
31734;SDS011;18313;48.518;9.124;2023-07-29T08:31:06;4.38;;;1.83;;
31734;SDS011;18313;48.518;9.124;2023-07-29T08:33:34;2.95;;;1.77;;
31734;SDS011;18313;48.518;9.124;2023-07-29T08:36:01;2.88;;;1.80;;
31734;SDS011;18313;48.518;9.124;2023-07-29T08:38:29;3.58;;;1.80;;
31734;SDS011;18313;48.518;9.124;2023-07-29T08:41:04;4.15;;;1.73;;
31734;SDS011;18313;48.518;9.124;2023-07-29T08:43:35;2.28;;;1.40;;
31734;SDS011;18313;48.518;9.124;2023-07-29T08:46:05;2.28;;;1.40;;
31734;SDS011;18313;48.518;9.124;2023-07-29T08:48:39;4.00;;;1.83;;
31734;SDS011;18313;48.518;9.124;2023-07-29T08:51:10;3.05;;;1.40;;
31734;SDS011;18313;48.518;9.124;2023-07-29T08:53:38;3.03;;;1.60;;
31734;SDS011;18313;48.518;9.124;2023-07-29T08:56:06;2.85;;;1.35;;
31734;SDS011;18313;48.518;9.124;2023-07-29T08:58:34;2.80;;;1.50;;
31734;SDS011;18313;48.518;9.124;2023-07-29T09:01:02;3.85;;;1.30;;
31734;SDS011;18313;48.518;9.124;2023-07-29T09:03:29;2.55;;;1.50;;
31734;SDS011;18313;48.518;9.124;2023-07-29T09:05:57;2.90;;;1.38;;
31734;SDS011;18313;48.518;9.124;2023-07-29T09:08:26;2.75;;;1.40;;
31734;SDS011;18313;48.518;9.124;2023-07-29T09:10:54;2.85;;;1.48;;
31734;SDS011;18313;48.518;9.124;2023-07-29T09:13:22;4.53;;;1.50;;
31734;SDS011;18313;48.518;9.124;2023-07-29T09:15:49;4.70;;;1.50;;
31734;SDS011;18313;48.518;9.124;2023-07-29T09:18:20;2.60;;;1.35;;
31734;SDS011;18313;48.518;9.124;2023-07-29T09:20:47;3.83;;;1.90;;
31734;SDS011;18313;48.518;9.124;2023-07-29T09:23:15;4.35;;;2.00;;
31734;SDS011;18313;48.518;9.124;2023-07-29T09:25:43;3.90;;;1.73;;
31734;SDS011;18313;48.518;9.124;2023-07-29T09:28:13;3.78;;;1.90;;
31734;SDS011;18313;48.518;9.124;2023-07-29T09:30:42;2.78;;;1.75;;
31734;SDS011;18313;48.518;9.124;2023-07-29T09:33:11;2.80;;;1.63;;
31734;SDS011;18313;48.518;9.124;2023-07-29T09:35:38;3.42;;;1.67;;
31734;SDS011;18313;48.518;9.124;2023-07-29T09:38:06;3.60;;;1.77;;
31734;SDS011;18313;48.518;9.124;2023-07-29T09:40:37;5.40;;;1.90;;
31734;SDS011;18313;48.518;9.124;2023-07-29T09:43:06;2.50;;;1.50;;
31734;SDS011;18313;48.518;9.124;2023-07-29T09:45:36;3.15;;;1.67;;
31734;SDS011;18313;48.518;9.124;2023-07-29T09:48:04;5.20;;;1.83;;
31734;SDS011;18313;48.518;9.124;2023-07-29T09:50:36;4.28;;;1.80;;
31734;SDS011;18313;48.518;9.124;2023-07-29T09:53:03;2.60;;;1.83;;
31734;SDS011;18313;48.518;9.124;2023-07-29T09:55:33;2.92;;;1.88;;
31734;SDS011;18313;48.518;9.124;2023-07-29T09:58:01;4.50;;;1.85;;
31734;SDS011;18313;48.518;9.124;2023-07-29T10:00:31;3.30;;;1.70;;
31734;SDS011;18313;48.518;9.124;2023-07-29T10:02:59;2.72;;;1.60;;
31734;SDS011;18313;48.518;9.124;2023-07-29T10:05:27;4.47;;;1.70;;
31734;SDS011;18313;48.518;9.124;2023-07-29T10:07:55;4.95;;;1.90;;
31734;SDS011;18313;48.518;9.124;2023-07-29T10:10:23;2.65;;;1.58;;
31734;SDS011;18313;48.518;9.124;2023-07-29T10:12:50;3.38;;;1.70;;
31734;SDS011;18313;48.518;9.124;2023-07-29T10:15:18;2.22;;;1.60;;
31734;SDS011;18313;48.518;9.124;2023-07-29T10:17:46;2.90;;;1.75;;
31734;SDS011;18313;48.518;9.124;2023-07-29T10:20:15;4.32;;;1.60;;
31734;SDS011;18313;48.518;9.124;2023-07-29T10:22:43;2.85;;;1.85;;
31734;SDS011;18313;48.518;9.124;2023-07-29T10:25:17;2.75;;;1.70;;
31734;SDS011;18313;48.518;9.124;2023-07-29T10:27:49;4.20;;;1.73;;
31734;SDS011;18313;48.518;9.124;2023-07-29T10:30:22;2.70;;;1.70;;
31734;SDS011;18313;48.518;9.124;2023-07-29T10:32:51;3.63;;;1.60;;
31734;SDS011;18313;48.518;9.124;2023-07-29T10:35:19;2.63;;;1.52;;
31734;SDS011;18313;48.518;9.124;2023-07-29T10:37:47;3.50;;;1.63;;
31734;SDS011;18313;48.518;9.124;2023-07-29T10:40:17;3.22;;;1.70;;
31734;SDS011;18313;48.518;9.124;2023-07-29T10:45:38;3.08;;;1.50;;
31734;SDS011;18313;48.518;9.124;2023-07-29T10:53:48;6.95;;;1.70;;
31734;SDS011;18313;48.518;9.124;2023-07-29T10:56:27;4.95;;;1.90;;
31734;SDS011;18313;48.518;9.124;2023-07-29T10:58:56;4.32;;;1.63;;
31734;SDS011;18313;48.518;9.124;2023-07-29T11:01:28;2.55;;;1.65;;
31734;SDS011;18313;48.518;9.124;2023-07-29T11:09:40;2.28;;;1.40;;
31734;SDS011;18313;48.518;9.124;2023-07-29T11:12:36;2.60;;;1.48;;
31734;SDS011;18313;48.518;9.124;2023-07-29T11:15:17;2.58;;;1.65;;
31734;SDS011;18313;48.518;9.124;2023-07-29T11:20:30;3.05;;;1.50;;
31734;SDS011;18313;48.518;9.124;2023-07-29T11:23:01;3.22;;;1.67;;
31734;SDS011;18313;48.518;9.124;2023-07-29T11:28:37;2.65;;;1.35;;
31734;SDS011;18313;48.518;9.124;2023-07-29T11:31:05;3.03;;;1.80;;
31734;SDS011;18313;48.518;9.124;2023-07-29T11:36:38;3.40;;;1.95;;
31734;SDS011;18313;48.518;9.124;2023-07-29T11:39:12;3.10;;;1.70;;
31734;SDS011;18313;48.518;9.124;2023-07-29T11:41:39;4.53;;;1.80;;
31734;SDS011;18313;48.518;9.124;2023-07-29T11:44:16;3.00;;;1.70;;
31734;SDS011;18313;48.518;9.124;2023-07-29T11:46:44;2.92;;;1.40;;
31734;SDS011;18313;48.518;9.124;2023-07-29T11:50:04;2.72;;;1.63;;
31734;SDS011;18313;48.518;9.124;2023-07-29T11:52:33;3.78;;;1.48;;
31734;SDS011;18313;48.518;9.124;2023-07-29T11:55:03;3.92;;;1.65;;
31734;SDS011;18313;48.518;9.124;2023-07-29T11:57:32;3.42;;;1.48;;
31734;SDS011;18313;48.518;9.124;2023-07-29T12:00:02;2.72;;;1.40;;
31734;SDS011;18313;48.518;9.124;2023-07-29T12:02:33;2.90;;;1.52;;
31734;SDS011;18313;48.518;9.124;2023-07-29T12:06:32;1.90;;;1.25;;
31734;SDS011;18313;48.518;9.124;2023-07-29T12:08:57;3.90;;;1.40;;
31734;SDS011;18313;48.518;9.124;2023-07-29T12:11:28;2.75;;;1.30;;
31734;SDS011;18313;48.518;9.124;2023-07-29T12:15:29;2.85;;;1.23;;
31734;SDS011;18313;48.518;9.124;2023-07-29T12:18:10;2.58;;;1.40;;
31734;SDS011;18313;48.518;9.124;2023-07-29T12:20:38;1.88;;;1.40;;
31734;SDS011;18313;48.518;9.124;2023-07-29T12:23:05;2.25;;;1.23;;
31734;SDS011;18313;48.518;9.124;2023-07-29T12:25:34;4.38;;;1.48;;
31734;SDS011;18313;48.518;9.124;2023-07-29T12:28:30;4.28;;;1.45;;
31734;SDS011;18313;48.518;9.124;2023-07-29T12:31:39;3.75;;;1.50;;
31734;SDS011;18313;48.518;9.124;2023-07-29T12:34:07;2.80;;;1.50;;
31734;SDS011;18313;48.518;9.124;2023-07-29T12:36:48;2.50;;;1.60;;
31734;SDS011;18313;48.518;9.124;2023-07-29T12:39:25;3.63;;;1.70;;
31734;SDS011;18313;48.518;9.124;2023-07-29T12:41:54;2.78;;;1.63;;
31734;SDS011;18313;48.518;9.124;2023-07-29T12:44:22;4.57;;;1.83;;
31734;SDS011;18313;48.518;9.124;2023-07-29T12:46:50;3.00;;;1.60;;
31734;SDS011;18313;48.518;9.124;2023-07-29T12:49:18;2.55;;;1.60;;
31734;SDS011;18313;48.518;9.124;2023-07-29T12:51:45;2.63;;;1.50;;
31734;SDS011;18313;48.518;9.124;2023-07-29T12:54:12;2.42;;;1.50;;
31734;SDS011;18313;48.518;9.124;2023-07-29T12:57:22;2.88;;;1.52;;
31734;SDS011;18313;48.518;9.124;2023-07-29T12:59:53;2.65;;;1.70;;
31734;SDS011;18313;48.518;9.124;2023-07-29T13:03:10;2.97;;;1.53;;
31734;SDS011;18313;48.518;9.124;2023-07-29T13:13:55;3.00;;;1.55;;
31734;SDS011;18313;48.518;9.124;2023-07-29T13:17:32;2.90;;;1.73;;
31734;SDS011;18313;48.518;9.124;2023-07-29T13:19:57;2.97;;;1.70;;
31734;SDS011;18313;48.518;9.124;2023-07-29T13:22:24;3.30;;;1.55;;
31734;SDS011;18313;48.518;9.124;2023-07-29T13:24:51;3.10;;;1.60;;
31734;SDS011;18313;48.518;9.124;2023-07-29T13:27:19;2.60;;;1.80;;
31734;SDS011;18313;48.518;9.124;2023-07-29T13:29:46;3.45;;;1.80;;
31734;SDS011;18313;48.518;9.124;2023-07-29T13:32:13;2.70;;;1.58;;
31734;SDS011;18313;48.518;9.124;2023-07-29T13:34:40;3.88;;;1.70;;
31734;SDS011;18313;48.518;9.124;2023-07-29T13:37:07;2.90;;;1.80;;
31734;SDS011;18313;48.518;9.124;2023-07-29T13:39:34;3.75;;;1.73;;
31734;SDS011;18313;48.518;9.124;2023-07-29T13:42:01;4.55;;;1.88;;
31734;SDS011;18313;48.518;9.124;2023-07-29T13:44:29;2.50;;;1.58;;
31734;SDS011;18313;48.518;9.124;2023-07-29T13:46:56;2.38;;;1.58;;
31734;SDS011;18313;48.518;9.124;2023-07-29T13:49:23;3.35;;;1.80;;
31734;SDS011;18313;48.518;9.124;2023-07-29T13:51:50;2.45;;;1.50;;
31734;SDS011;18313;48.518;9.124;2023-07-29T13:54:17;1.80;;;1.40;;
31734;SDS011;18313;48.518;9.124;2023-07-29T13:56:44;1.92;;;1.35;;
31734;SDS011;18313;48.518;9.124;2023-07-29T13:59:12;3.00;;;1.70;;
31734;SDS011;18313;48.518;9.124;2023-07-29T14:01:39;3.10;;;1.60;;
31734;SDS011;18313;48.518;9.124;2023-07-29T14:04:06;2.80;;;1.60;;
31734;SDS011;18313;48.518;9.124;2023-07-29T14:06:33;3.58;;;1.83;;
31734;SDS011;18313;48.518;9.124;2023-07-29T14:09:11;4.50;;;1.88;;
31734;SDS011;18313;48.518;9.124;2023-07-29T14:11:38;2.70;;;1.70;;
31734;SDS011;18313;48.518;9.124;2023-07-29T14:14:06;2.42;;;1.80;;
31734;SDS011;18313;48.518;9.124;2023-07-29T14:16:34;2.55;;;1.80;;
31734;SDS011;18313;48.518;9.124;2023-07-29T14:19:02;3.10;;;1.80;;
31734;SDS011;18313;48.518;9.124;2023-07-29T14:21:29;2.65;;;1.50;;
31734;SDS011;18313;48.518;9.124;2023-07-29T14:23:56;2.65;;;1.70;;
31734;SDS011;18313;48.518;9.124;2023-07-29T14:26:24;3.42;;;1.50;;
31734;SDS011;18313;48.518;9.124;2023-07-29T14:28:51;2.40;;;1.63;;
31734;SDS011;18313;48.518;9.124;2023-07-29T14:31:18;2.38;;;1.55;;
31734;SDS011;18313;48.518;9.124;2023-07-29T14:33:45;3.03;;;1.52;;
31734;SDS011;18313;48.518;9.124;2023-07-29T14:36:12;2.63;;;1.67;;
31734;SDS011;18313;48.518;9.124;2023-07-29T14:38:39;3.45;;;1.90;;
31734;SDS011;18313;48.518;9.124;2023-07-29T14:41:06;3.30;;;1.70;;
31734;SDS011;18313;48.518;9.124;2023-07-29T14:43:34;2.65;;;1.58;;
31734;SDS011;18313;48.518;9.124;2023-07-29T14:46:01;2.35;;;1.60;;
31734;SDS011;18313;48.518;9.124;2023-07-29T14:48:29;3.95;;;1.55;;
31734;SDS011;18313;48.518;9.124;2023-07-29T14:50:56;2.85;;;1.55;;
31734;SDS011;18313;48.518;9.124;2023-07-29T14:53:23;2.47;;;1.70;;
31734;SDS011;18313;48.518;9.124;2023-07-29T14:55:51;2.97;;;1.67;;
31734;SDS011;18313;48.518;9.124;2023-07-29T14:58:18;2.65;;;1.73;;
31734;SDS011;18313;48.518;9.124;2023-07-29T15:00:45;2.67;;;1.70;;
31734;SDS011;18313;48.518;9.124;2023-07-29T15:03:12;2.47;;;1.50;;
31734;SDS011;18313;48.518;9.124;2023-07-29T15:05:40;3.60;;;1.52;;
31734;SDS011;18313;48.518;9.124;2023-07-29T15:08:09;2.38;;;1.60;;
31734;SDS011;18313;48.518;9.124;2023-07-29T15:10:36;3.17;;;1.85;;
31734;SDS011;18313;48.518;9.124;2023-07-29T15:13:03;3.83;;;1.55;;
31734;SDS011;18313;48.518;9.124;2023-07-29T15:15:44;2.63;;;1.60;;
31734;SDS011;18313;48.518;9.124;2023-07-29T15:18:11;2.67;;;1.70;;
31734;SDS011;18313;48.518;9.124;2023-07-29T15:20:39;2.47;;;1.50;;
31734;SDS011;18313;48.518;9.124;2023-07-29T15:23:06;2.08;;;1.50;;
31734;SDS011;18313;48.518;9.124;2023-07-29T15:25:33;3.33;;;1.55;;
31734;SDS011;18313;48.518;9.124;2023-07-29T15:28:01;2.25;;;1.63;;
31734;SDS011;18313;48.518;9.124;2023-07-29T15:30:28;3.75;;;1.55;;
31734;SDS011;18313;48.518;9.124;2023-07-29T15:32:55;3.20;;;1.63;;
31734;SDS011;18313;48.518;9.124;2023-07-29T15:35:22;3.72;;;1.75;;
31734;SDS011;18313;48.518;9.124;2023-07-29T15:37:49;2.38;;;1.60;;